RJNA(METAR)
06/28 23:00
METAR RJNA 281400Z 15004KT 9999 FEW030 BKN/// 23/21 Q1013 RMK 1CU030
A2992=
戻る
トップページへ戻る
IMOC Co,.Ltd.